sensor_id;sensor_type;location;lat;lon;timestamp;P1;durP1;ratioP1;P2;durP2;ratioP2
24383;SDS011;12504;52.870;8.798;2023-08-31T00:02:14;10.63;;;4.68;;
24383;SDS011;12504;52.870;8.798;2023-08-31T00:04:40;9.30;;;5.10;;
24383;SDS011;12504;52.870;8.798;2023-08-31T00:07:06;9.48;;;5.57;;
24383;SDS011;12504;52.870;8.798;2023-08-31T00:09:32;12.25;;;5.68;;
24383;SDS011;12504;52.870;8.798;2023-08-31T00:11:58;15.02;;;5.20;;
24383;SDS011;12504;52.870;8.798;2023-08-31T00:14:26;7.22;;;4.57;;
24383;SDS011;12504;52.870;8.798;2023-08-31T00:16:52;7.57;;;4.88;;
24383;SDS011;12504;52.870;8.798;2023-08-31T00:19:18;15.10;;;5.38;;
24383;SDS011;12504;52.870;8.798;2023-08-31T00:21:44;10.77;;;5.30;;
24383;SDS011;12504;52.870;8.798;2023-08-31T00:24:10;10.98;;;5.45;;
24383;SDS011;12504;52.870;8.798;2023-08-31T00:26:36;11.20;;;5.43;;
24383;SDS011;12504;52.870;8.798;2023-08-31T00:29:09;10.38;;;6.45;;
24383;SDS011;12504;52.870;8.798;2023-08-31T00:31:37;14.40;;;5.22;;
24383;SDS011;12504;52.870;8.798;2023-08-31T00:34:04;12.48;;;4.63;;
24383;SDS011;12504;52.870;8.798;2023-08-31T00:36:32;8.05;;;4.95;;
24383;SDS011;12504;52.870;8.798;2023-08-31T00:39:02;9.45;;;5.38;;
24383;SDS011;12504;52.870;8.798;2023-08-31T00:41:31;9.95;;;5.18;;
24383;SDS011;12504;52.870;8.798;2023-08-31T00:43:56;11.38;;;4.72;;
24383;SDS011;12504;52.870;8.798;2023-08-31T00:46:22;13.52;;;4.75;;
24383;SDS011;12504;52.870;8.798;2023-08-31T00:48:48;11.48;;;5.00;;
24383;SDS011;12504;52.870;8.798;2023-08-31T00:51:15;7.70;;;4.60;;
24383;SDS011;12504;52.870;8.798;2023-08-31T00:53:40;8.10;;;4.57;;
24383;SDS011;12504;52.870;8.798;2023-08-31T00:56:07;7.00;;;4.20;;
24383;SDS011;12504;52.870;8.798;2023-08-31T00:58:33;12.30;;;4.82;;
24383;SDS011;12504;52.870;8.798;2023-08-31T01:03:40;9.30;;;5.18;;
24383;SDS011;12504;52.870;8.798;2023-08-31T01:06:24;13.00;;;7.70;;
24383;SDS011;12504;52.870;8.798;2023-08-31T01:09:05;15.45;;;6.30;;
24383;SDS011;12504;52.870;8.798;2023-08-31T01:11:58;13.50;;;6.30;;
24383;SDS011;12504;52.870;8.798;2023-08-31T01:14:33;11.70;;;6.70;;
24383;SDS011;12504;52.870;8.798;2023-08-31T01:17:12;11.82;;;6.57;;
24383;SDS011;12504;52.870;8.798;2023-08-31T01:19:48;14.13;;;4.97;;
24383;SDS011;12504;52.870;8.798;2023-08-31T01:24:51;9.27;;;5.63;;
24383;SDS011;12504;52.870;8.798;2023-08-31T01:27:18;11.07;;;5.80;;
24383;SDS011;12504;52.870;8.798;2023-08-31T01:29:45;10.50;;;5.88;;
24383;SDS011;12504;52.870;8.798;2023-08-31T01:32:11;13.25;;;6.38;;
24383;SDS011;12504;52.870;8.798;2023-08-31T01:34:37;10.80;;;6.47;;
24383;SDS011;12504;52.870;8.798;2023-08-31T01:37:13;11.10;;;6.28;;
24383;SDS011;12504;52.870;8.798;2023-08-31T01:39:46;15.70;;;8.20;;
24383;SDS011;12504;52.870;8.798;2023-08-31T01:42:17;12.93;;;7.35;;
24383;SDS011;12504;52.870;8.798;2023-08-31T01:44:44;14.45;;;6.05;;
24383;SDS011;12504;52.870;8.798;2023-08-31T01:47:13;8.88;;;5.95;;
24383;SDS011;12504;52.870;8.798;2023-08-31T01:49:44;11.10;;;5.78;;
24383;SDS011;12504;52.870;8.798;2023-08-31T01:52:10;16.50;;;6.25;;
24383;SDS011;12504;52.870;8.798;2023-08-31T01:54:36;13.80;;;6.13;;
24383;SDS011;12504;52.870;8.798;2023-08-31T01:57:05;16.25;;;7.93;;
24383;SDS011;12504;52.870;8.798;2023-08-31T01:59:32;10.75;;;6.30;;
24383;SDS011;12504;52.870;8.798;2023-08-31T02:01:59;12.82;;;6.40;;
24383;SDS011;12504;52.870;8.798;2023-08-31T02:04:25;11.75;;;6.47;;
24383;SDS011;12504;52.870;8.798;2023-08-31T02:06:50;12.68;;;5.82;;
24383;SDS011;12504;52.870;8.798;2023-08-31T02:09:16;11.48;;;5.95;;
24383;SDS011;12504;52.870;8.798;2023-08-31T02:11:42;9.35;;;6.13;;
24383;SDS011;12504;52.870;8.798;2023-08-31T02:14:08;13.93;;;7.32;;
24383;SDS011;12504;52.870;8.798;2023-08-31T02:16:34;12.40;;;6.18;;
24383;SDS011;12504;52.870;8.798;2023-08-31T02:18:59;13.27;;;6.32;;
24383;SDS011;12504;52.870;8.798;2023-08-31T02:21:25;10.93;;;6.03;;
24383;SDS011;12504;52.870;8.798;2023-08-31T02:23:52;11.23;;;6.38;;
24383;SDS011;12504;52.870;8.798;2023-08-31T02:26:17;11.85;;;6.75;;
24383;SDS011;12504;52.870;8.798;2023-08-31T02:28:45;21.92;;;7.03;;
24383;SDS011;12504;52.870;8.798;2023-08-31T02:31:11;14.00;;;6.32;;
24383;SDS011;12504;52.870;8.798;2023-08-31T02:33:39;9.00;;;5.60;;
24383;SDS011;12504;52.870;8.798;2023-08-31T02:36:05;13.25;;;6.47;;
24383;SDS011;12504;52.870;8.798;2023-08-31T02:38:31;11.88;;;5.72;;
24383;SDS011;12504;52.870;8.798;2023-08-31T02:40:57;19.00;;;7.80;;
24383;SDS011;12504;52.870;8.798;2023-08-31T02:43:22;11.50;;;6.43;;
24383;SDS011;12504;52.870;8.798;2023-08-31T02:45:50;13.60;;;5.82;;
24383;SDS011;12504;52.870;8.798;2023-08-31T02:48:24;12.90;;;6.70;;
24383;SDS011;12504;52.870;8.798;2023-08-31T02:50:50;15.43;;;6.75;;
24383;SDS011;12504;52.870;8.798;2023-08-31T02:53:16;13.60;;;6.35;;
24383;SDS011;12504;52.870;8.798;2023-08-31T02:55:42;12.95;;;6.38;;
24383;SDS011;12504;52.870;8.798;2023-08-31T02:58:07;14.23;;;6.90;;
24383;SDS011;12504;52.870;8.798;2023-08-31T03:00:33;12.15;;;6.13;;
24383;SDS011;12504;52.870;8.798;2023-08-31T03:02:59;19.35;;;7.60;;
24383;SDS011;12504;52.870;8.798;2023-08-31T03:05:25;15.27;;;7.32;;
24383;SDS011;12504;52.870;8.798;2023-08-31T03:07:51;13.63;;;6.47;;
24383;SDS011;12504;52.870;8.798;2023-08-31T03:10:17;10.57;;;6.22;;
24383;SDS011;12504;52.870;8.798;2023-08-31T03:12:43;14.73;;;7.38;;
24383;SDS011;12504;52.870;8.798;2023-08-31T03:15:08;13.13;;;6.78;;
24383;SDS011;12504;52.870;8.798;2023-08-31T03:17:34;13.73;;;6.93;;
24383;SDS011;12504;52.870;8.798;2023-08-31T03:20:00;14.80;;;7.82;;
24383;SDS011;12504;52.870;8.798;2023-08-31T03:22:25;14.65;;;7.50;;
24383;SDS011;12504;52.870;8.798;2023-08-31T03:24:51;12.45;;;5.97;;
24383;SDS011;12504;52.870;8.798;2023-08-31T03:27:16;15.10;;;7.43;;
24383;SDS011;12504;52.870;8.798;2023-08-31T03:29:45;17.27;;;7.22;;
24383;SDS011;12504;52.870;8.798;2023-08-31T03:32:11;19.13;;;8.98;;
24383;SDS011;12504;52.870;8.798;2023-08-31T03:34:37;26.05;;;8.23;;
24383;SDS011;12504;52.870;8.798;2023-08-31T03:37:02;16.35;;;6.57;;
24383;SDS011;12504;52.870;8.798;2023-08-31T03:39:28;12.95;;;7.07;;
24383;SDS011;12504;52.870;8.798;2023-08-31T03:41:54;12.73;;;7.15;;
24383;SDS011;12504;52.870;8.798;2023-08-31T03:44:20;17.35;;;7.20;;
24383;SDS011;12504;52.870;8.798;2023-08-31T03:46:48;12.43;;;7.10;;
24383;SDS011;12504;52.870;8.798;2023-08-31T03:49:14;20.02;;;7.07;;
24383;SDS011;12504;52.870;8.798;2023-08-31T03:51:40;16.48;;;7.30;;
24383;SDS011;12504;52.870;8.798;2023-08-31T03:54:05;16.95;;;8.35;;
24383;SDS011;12504;52.870;8.798;2023-08-31T03:56:31;13.55;;;7.30;;
24383;SDS011;12504;52.870;8.798;2023-08-31T03:59:01;22.52;;;9.60;;
24383;SDS011;12504;52.870;8.798;2023-08-31T04:01:29;15.98;;;7.55;;
24383;SDS011;12504;52.870;8.798;2023-08-31T04:03:55;12.18;;;7.38;;
24383;SDS011;12504;52.870;8.798;2023-08-31T04:06:21;18.75;;;8.05;;
24383;SDS011;12504;52.870;8.798;2023-08-31T04:08:47;14.63;;;7.57;;
24383;SDS011;12504;52.870;8.798;2023-08-31T04:11:12;20.73;;;8.15;;
24383;SDS011;12504;52.870;8.798;2023-08-31T04:13:38;16.00;;;7.13;;
24383;SDS011;12504;52.870;8.798;2023-08-31T04:16:04;12.18;;;7.22;;
24383;SDS011;12504;52.870;8.798;2023-08-31T04:18:30;12.57;;;6.63;;
24383;SDS011;12504;52.870;8.798;2023-08-31T04:20:56;16.70;;;8.05;;
24383;SDS011;12504;52.870;8.798;2023-08-31T04:23:24;16.40;;;7.05;;
24383;SDS011;12504;52.870;8.798;2023-08-31T04:25:49;14.30;;;7.57;;
24383;SDS011;12504;52.870;8.798;2023-08-31T04:28:18;14.88;;;9.15;;
24383;SDS011;12504;52.870;8.798;2023-08-31T04:30:44;22.00;;;7.95;;
24383;SDS011;12504;52.870;8.798;2023-08-31T04:33:10;12.30;;;7.68;;
24383;SDS011;12504;52.870;8.798;2023-08-31T04:35:35;21.17;;;8.13;;
24383;SDS011;12504;52.870;8.798;2023-08-31T04:38:01;16.25;;;7.78;;
24383;SDS011;12504;52.870;8.798;2023-08-31T04:40:27;13.35;;;7.18;;
24383;SDS011;12504;52.870;8.798;2023-08-31T04:42:54;15.13;;;8.30;;
24383;SDS011;12504;52.870;8.798;2023-08-31T04:45:20;15.35;;;8.32;;
24383;SDS011;12504;52.870;8.798;2023-08-31T04:47:46;15.73;;;8.27;;
24383;SDS011;12504;52.870;8.798;2023-08-31T04:50:11;14.10;;;8.10;;
24383;SDS011;12504;52.870;8.798;2023-08-31T04:52:37;15.68;;;7.93;;
24383;SDS011;12504;52.870;8.798;2023-08-31T04:55:03;15.82;;;8.65;;
24383;SDS011;12504;52.870;8.798;2023-08-31T04:57:32;13.23;;;8.07;;
24383;SDS011;12504;52.870;8.798;2023-08-31T04:59:58;16.38;;;7.93;;
24383;SDS011;12504;52.870;8.798;2023-08-31T05:02:24;15.23;;;8.23;;
24383;SDS011;12504;52.870;8.798;2023-08-31T05:04:50;15.52;;;7.47;;
24383;SDS011;12504;52.870;8.798;2023-08-31T05:07:16;17.58;;;9.63;;
24383;SDS011;12504;52.870;8.798;2023-08-31T05:09:42;19.67;;;10.35;;
24383;SDS011;12504;52.870;8.798;2023-08-31T05:12:07;15.40;;;7.82;;
24383;SDS011;12504;52.870;8.798;2023-08-31T05:14:33;16.38;;;7.78;;
24383;SDS011;12504;52.870;8.798;2023-08-31T05:17:05;17.00;;;8.85;;
24383;SDS011;12504;52.870;8.798;2023-08-31T05:19:31;17.65;;;9.32;;
24383;SDS011;12504;52.870;8.798;2023-08-31T05:21:57;11.95;;;7.82;;
24383;SDS011;12504;52.870;8.798;2023-08-31T05:24:23;16.27;;;8.52;;
24383;SDS011;12504;52.870;8.798;2023-08-31T05:26:49;19.40;;;8.73;;
24383;SDS011;12504;52.870;8.798;2023-08-31T05:29:14;18.35;;;10.27;;
24383;SDS011;12504;52.870;8.798;2023-08-31T05:31:40;18.73;;;8.95;;
24383;SDS011;12504;52.870;8.798;2023-08-31T05:34:06;12.77;;;7.85;;
24383;SDS011;12504;52.870;8.798;2023-08-31T05:36:34;17.60;;;8.95;;
24383;SDS011;12504;52.870;8.798;2023-08-31T05:39:00;15.63;;;8.10;;
24383;SDS011;12504;52.870;8.798;2023-08-31T05:41:25;22.05;;;9.38;;
24383;SDS011;12504;52.870;8.798;2023-08-31T05:43:53;21.30;;;8.73;;
24383;SDS011;12504;52.870;8.798;2023-08-31T05:46:18;18.75;;;8.98;;
24383;SDS011;12504;52.870;8.798;2023-08-31T05:48:44;16.55;;;8.98;;
24383;SDS011;12504;52.870;8.798;2023-08-31T05:51:10;14.82;;;8.10;;
24383;SDS011;12504;52.870;8.798;2023-08-31T05:53:35;15.80;;;9.50;;
24383;SDS011;12504;52.870;8.798;2023-08-31T05:56:02;19.88;;;11.52;;
24383;SDS011;12504;52.870;8.798;2023-08-31T05:58:35;14.77;;;7.95;;
24383;SDS011;12504;52.870;8.798;2023-08-31T06:01:02;20.83;;;11.00;;
24383;SDS011;12504;52.870;8.798;2023-08-31T06:03:28;16.55;;;9.38;;
24383;SDS011;12504;52.870;8.798;2023-08-31T06:05:55;14.55;;;9.00;;
24383;SDS011;12504;52.870;8.798;2023-08-31T06:08:21;14.75;;;8.70;;
24383;SDS011;12504;52.870;8.798;2023-08-31T06:10:47;14.25;;;8.63;;
24383;SDS011;12504;52.870;8.798;2023-08-31T06:13:13;18.77;;;8.40;;
24383;SDS011;12504;52.870;8.798;2023-08-31T06:15:38;15.02;;;9.20;;
24383;SDS011;12504;52.870;8.798;2023-08-31T06:18:04;14.50;;;8.85;;
24383;SDS011;12504;52.870;8.798;2023-08-31T06:20:30;14.82;;;8.60;;
24383;SDS011;12504;52.870;8.798;2023-08-31T06:22:56;16.38;;;8.35;;
24383;SDS011;12504;52.870;8.798;2023-08-31T06:25:22;17.95;;;10.32;;
24383;SDS011;12504;52.870;8.798;2023-08-31T06:27:48;14.38;;;8.57;;
24383;SDS011;12504;52.870;8.798;2023-08-31T06:30:14;18.40;;;9.23;;
24383;SDS011;12504;52.870;8.798;2023-08-31T06:32:44;14.00;;;8.82;;
24383;SDS011;12504;52.870;8.798;2023-08-31T06:35:11;15.93;;;9.18;;
24383;SDS011;12504;52.870;8.798;2023-08-31T06:37:37;14.50;;;8.75;;
24383;SDS011;12504;52.870;8.798;2023-08-31T06:40:08;15.95;;;8.80;;
24383;SDS011;12504;52.870;8.798;2023-08-31T06:45:01;17.15;;;9.32;;
24383;SDS011;12504;52.870;8.798;2023-08-31T06:47:28;15.90;;;9.13;;
24383;SDS011;12504;52.870;8.798;2023-08-31T06:49:53;15.85;;;8.82;;
24383;SDS011;12504;52.870;8.798;2023-08-31T06:52:19;13.65;;;8.02;;
24383;SDS011;12504;52.870;8.798;2023-08-31T06:54:45;13.10;;;8.32;;
24383;SDS011;12504;52.870;8.798;2023-08-31T06:57:10;15.35;;;8.98;;
24383;SDS011;12504;52.870;8.798;2023-08-31T06:59:36;19.92;;;8.70;;
24383;SDS011;12504;52.870;8.798;2023-08-31T07:02:02;18.75;;;9.75;;
24383;SDS011;12504;52.870;8.798;2023-08-31T07:04:27;17.27;;;9.32;;
24383;SDS011;12504;52.870;8.798;2023-08-31T07:06:53;14.82;;;9.60;;
24383;SDS011;12504;52.870;8.798;2023-08-31T07:09:19;19.05;;;10.25;;
24383;SDS011;12504;52.870;8.798;2023-08-31T07:11:45;20.30;;;9.68;;
24383;SDS011;12504;52.870;8.798;2023-08-31T07:14:10;20.08;;;11.60;;
24383;SDS011;12504;52.870;8.798;2023-08-31T07:16:36;18.15;;;11.63;;
24383;SDS011;12504;52.870;8.798;2023-08-31T07:19:02;17.52;;;10.27;;
24383;SDS011;12504;52.870;8.798;2023-08-31T07:21:27;21.88;;;12.48;;
24383;SDS011;12504;52.870;8.798;2023-08-31T07:23:53;23.17;;;12.45;;
24383;SDS011;12504;52.870;8.798;2023-08-31T07:26:19;23.48;;;13.95;;
24383;SDS011;12504;52.870;8.798;2023-08-31T07:28:46;20.70;;;11.75;;
24383;SDS011;12504;52.870;8.798;2023-08-31T07:31:12;23.45;;;13.13;;
24383;SDS011;12504;52.870;8.798;2023-08-31T07:33:38;26.75;;;14.77;;
24383;SDS011;12504;52.870;8.798;2023-08-31T07:36:05;23.17;;;12.10;;
24383;SDS011;12504;52.870;8.798;2023-08-31T07:38:31;25.40;;;14.10;;
24383;SDS011;12504;52.870;8.798;2023-08-31T07:40:57;25.30;;;13.55;;
24383;SDS011;12504;52.870;8.798;2023-08-31T07:43:25;22.40;;;13.38;;
24383;SDS011;12504;52.870;8.798;2023-08-31T07:45:50;24.52;;;13.52;;
24383;SDS011;12504;52.870;8.798;2023-08-31T07:48:17;23.13;;;13.80;;
24383;SDS011;12504;52.870;8.798;2023-08-31T07:50:42;26.08;;;14.15;;
24383;SDS011;12504;52.870;8.798;2023-08-31T07:53:08;23.38;;;13.73;;
24383;SDS011;12504;52.870;8.798;2023-08-31T07:55:34;21.92;;;13.48;;
24383;SDS011;12504;52.870;8.798;2023-08-31T07:58:02;21.30;;;13.68;;
24383;SDS011;12504;52.870;8.798;2023-08-31T08:00:28;25.17;;;13.98;;
24383;SDS011;12504;52.870;8.798;2023-08-31T08:02:54;25.92;;;13.60;;
24383;SDS011;12504;52.870;8.798;2023-08-31T08:05:20;24.80;;;14.32;;
24383;SDS011;12504;52.870;8.798;2023-08-31T08:07:45;24.25;;;14.82;;
24383;SDS011;12504;52.870;8.798;2023-08-31T08:10:12;24.05;;;14.77;;
24383;SDS011;12504;52.870;8.798;2023-08-31T08:12:41;27.40;;;14.50;;
24383;SDS011;12504;52.870;8.798;2023-08-31T08:15:11;25.55;;;14.07;;
24383;SDS011;12504;52.870;8.798;2023-08-31T08:17:37;22.52;;;12.40;;
24383;SDS011;12504;52.870;8.798;2023-08-31T08:20:03;26.88;;;15.75;;
24383;SDS011;12504;52.870;8.798;2023-08-31T08:22:30;29.02;;;15.50;;
24383;SDS011;12504;52.870;8.798;2023-08-31T08:24:55;29.33;;;16.08;;
24383;SDS011;12504;52.870;8.798;2023-08-31T08:27:21;24.52;;;14.85;;
24383;SDS011;12504;52.870;8.798;2023-08-31T08:29:47;26.77;;;13.82;;
24383;SDS011;12504;52.870;8.798;2023-08-31T08:32:13;21.02;;;12.30;;
24383;SDS011;12504;52.870;8.798;2023-08-31T08:34:38;25.35;;;13.70;;
24383;SDS011;12504;52.870;8.798;2023-08-31T08:37:04;21.27;;;13.40;;
24383;SDS011;12504;52.870;8.798;2023-08-31T08:39:30;21.35;;;13.95;;
24383;SDS011;12504;52.870;8.798;2023-08-31T08:41:59;19.27;;;11.55;;
24383;SDS011;12504;52.870;8.798;2023-08-31T08:44:25;18.05;;;13.07;;
24383;SDS011;12504;52.870;8.798;2023-08-31T08:46:54;22.98;;;12.73;;
24383;SDS011;12504;52.870;8.798;2023-08-31T08:49:22;21.25;;;12.82;;
24383;SDS011;12504;52.870;8.798;2023-08-31T08:51:49;19.17;;;12.88;;
24383;SDS011;12504;52.870;8.798;2023-08-31T08:54:16;16.27;;;9.75;;
24383;SDS011;12504;52.870;8.798;2023-08-31T08:56:43;17.55;;;11.50;;
24383;SDS011;12504;52.870;8.798;2023-08-31T08:59:09;17.50;;;10.57;;
24383;SDS011;12504;52.870;8.798;2023-08-31T09:01:39;17.95;;;11.63;;
24383;SDS011;12504;52.870;8.798;2023-08-31T09:04:05;17.75;;;11.02;;
24383;SDS011;12504;52.870;8.798;2023-08-31T09:06:31;16.25;;;10.07;;
24383;SDS011;12504;52.870;8.798;2023-08-31T09:08:57;18.13;;;10.55;;
24383;SDS011;12504;52.870;8.798;2023-08-31T09:11:24;15.05;;;9.10;;
24383;SDS011;12504;52.870;8.798;2023-08-31T09:13:51;19.30;;;10.68;;
24383;SDS011;12504;52.870;8.798;2023-08-31T09:16:27;13.25;;;9.40;;
24383;SDS011;12504;52.870;8.798;2023-08-31T09:18:56;14.52;;;9.27;;
24383;SDS011;12504;52.870;8.798;2023-08-31T09:21:35;13.85;;;8.35;;
24383;SDS011;12504;52.870;8.798;2023-08-31T09:24:01;11.95;;;8.20;;
24383;SDS011;12504;52.870;8.798;2023-08-31T09:26:28;9.98;;;8.00;;
24383;SDS011;12504;52.870;8.798;2023-08-31T09:28:54;12.35;;;7.38;;
24383;SDS011;12504;52.870;8.798;2023-08-31T09:31:20;9.82;;;6.68;;
24383;SDS011;12504;52.870;8.798;2023-08-31T09:33:52;9.27;;;6.28;;
24383;SDS011;12504;52.870;8.798;2023-08-31T09:36:19;6.00;;;4.68;;
24383;SDS011;12504;52.870;8.798;2023-08-31T09:38:47;9.27;;;5.10;;
24383;SDS011;12504;52.870;8.798;2023-08-31T09:41:13;8.05;;;5.25;;
24383;SDS011;12504;52.870;8.798;2023-08-31T09:43:40;8.20;;;5.30;;
24383;SDS011;12504;52.870;8.798;2023-08-31T09:46:06;6.82;;;5.20;;
24383;SDS011;12504;52.870;8.798;2023-08-31T09:48:32;5.30;;;3.92;;
24383;SDS011;12504;52.870;8.798;2023-08-31T09:50:59;7.55;;;3.95;;
24383;SDS011;12504;52.870;8.798;2023-08-31T09:55:55;7.13;;;3.65;;
24383;SDS011;12504;52.870;8.798;2023-08-31T09:58:22;7.95;;;5.00;;
24383;SDS011;12504;52.870;8.798;2023-08-31T10:00:49;6.20;;;3.50;;
24383;SDS011;12504;52.870;8.798;2023-08-31T10:03:16;6.15;;;4.38;;
24383;SDS011;12504;52.870;8.798;2023-08-31T10:05:46;6.70;;;4.05;;
24383;SDS011;12504;52.870;8.798;2023-08-31T10:08:12;5.65;;;2.40;;
24383;SDS011;12504;52.870;8.798;2023-08-31T10:10:39;6.60;;;3.13;;
24383;SDS011;12504;52.870;8.798;2023-08-31T10:13:06;4.55;;;2.40;;
24383;SDS011;12504;52.870;8.798;2023-08-31T10:15:33;6.88;;;1.85;;
24383;SDS011;12504;52.870;8.798;2023-08-31T10:18:04;3.92;;;1.88;;
24383;SDS011;12504;52.870;8.798;2023-08-31T10:20:31;3.80;;;1.38;;
24383;SDS011;12504;52.870;8.798;2023-08-31T10:23:04;2.10;;;1.67;;
24383;SDS011;12504;52.870;8.798;2023-08-31T10:25:59;7.32;;;1.85;;
24383;SDS011;12504;52.870;8.798;2023-08-31T10:28:20;5.07;;;1.92;;
24383;SDS011;12504;52.870;8.798;2023-08-31T10:33:30;7.50;;;2.97;;
24383;SDS011;12504;52.870;8.798;2023-08-31T10:35:57;2.90;;;2.33;;
24383;SDS011;12504;52.870;8.798;2023-08-31T10:43:26;5.38;;;3.25;;
24383;SDS011;12504;52.870;8.798;2023-08-31T10:45:52;7.18;;;3.45;;
24383;SDS011;12504;52.870;8.798;2023-08-31T10:48:17;5.80;;;3.20;;
24383;SDS011;12504;52.870;8.798;2023-08-31T10:50:44;4.40;;;3.20;;
24383;SDS011;12504;52.870;8.798;2023-08-31T10:53:12;7.53;;;2.90;;
24383;SDS011;12504;52.870;8.798;2023-08-31T10:55:50;7.00;;;3.47;;
24383;SDS011;12504;52.870;8.798;2023-08-31T10:58:17;3.58;;;2.38;;
24383;SDS011;12504;52.870;8.798;2023-08-31T11:01:01;8.05;;;1.90;;
24383;SDS011;12504;52.870;8.798;2023-08-31T11:03:29;3.15;;;1.52;;
24383;SDS011;12504;52.870;8.798;2023-08-31T11:05:57;4.05;;;1.58;;
24383;SDS011;12504;52.870;8.798;2023-08-31T11:08:23;2.10;;;1.65;;
24383;SDS011;12504;52.870;8.798;2023-08-31T11:10:50;1.83;;;1.35;;
24383;SDS011;12504;52.870;8.798;2023-08-31T11:13:18;2.63;;;1.60;;
24383;SDS011;12504;52.870;8.798;2023-08-31T11:15:45;2.88;;;1.40;;
24383;SDS011;12504;52.870;8.798;2023-08-31T11:18:11;4.53;;;2.20;;
24383;SDS011;12504;52.870;8.798;2023-08-31T11:20:37;1.48;;;1.20;;
24383;SDS011;12504;52.870;8.798;2023-08-31T11:23:03;2.20;;;1.10;;
24383;SDS011;12504;52.870;8.798;2023-08-31T11:25:31;2.65;;;1.10;;
24383;SDS011;12504;52.870;8.798;2023-08-31T11:27:58;3.67;;;1.23;;
24383;SDS011;12504;52.870;8.798;2023-08-31T11:30:26;1.77;;;1.13;;
24383;SDS011;12504;52.870;8.798;2023-08-31T11:32:53;3.10;;;0.95;;
24383;SDS011;12504;52.870;8.798;2023-08-31T11:35:22;1.40;;;0.85;;
24383;SDS011;12504;52.870;8.798;2023-08-31T11:37:50;1.90;;;0.93;;
24383;SDS011;12504;52.870;8.798;2023-08-31T11:40:17;2.35;;;1.10;;
24383;SDS011;12504;52.870;8.798;2023-08-31T11:42:43;0.82;;;0.60;;
24383;SDS011;12504;52.870;8.798;2023-08-31T11:45:09;1.15;;;0.60;;
24383;SDS011;12504;52.870;8.798;2023-08-31T11:47:39;6.03;;;1.07;;
24383;SDS011;12504;52.870;8.798;2023-08-31T11:50:06;1.02;;;0.60;;
24383;SDS011;12504;52.870;8.798;2023-08-31T11:52:32;1.73;;;0.50;;
24383;SDS011;12504;52.870;8.798;2023-08-31T11:54:58;0.68;;;0.50;;
24383;SDS011;12504;52.870;8.798;2023-08-31T11:57:25;1.77;;;0.60;;
24383;SDS011;12504;52.870;8.798;2023-08-31T11:59:51;0.50;;;0.40;;
24383;SDS011;12504;52.870;8.798;2023-08-31T12:02:20;1.73;;;0.60;;
24383;SDS011;12504;52.870;8.798;2023-08-31T12:04:46;0.43;;;0.43;;
24383;SDS011;12504;52.870;8.798;2023-08-31T12:07:16;1.90;;;0.40;;
24383;SDS011;12504;52.870;8.798;2023-08-31T12:09:43;0.98;;;0.50;;
24383;SDS011;12504;52.870;8.798;2023-08-31T12:12:10;2.05;;;0.75;;
24383;SDS011;12504;52.870;8.798;2023-08-31T12:14:38;2.05;;;0.70;;
24383;SDS011;12504;52.870;8.798;2023-08-31T12:17:07;2.75;;;0.52;;
24383;SDS011;12504;52.870;8.798;2023-08-31T12:19:36;2.22;;;0.52;;
24383;SDS011;12504;52.870;8.798;2023-08-31T12:22:03;5.30;;;0.80;;
24383;SDS011;12504;52.870;8.798;2023-08-31T12:24:29;1.42;;;0.80;;
24383;SDS011;12504;52.870;8.798;2023-08-31T12:27:01;0.55;;;0.32;;
24383;SDS011;12504;52.870;8.798;2023-08-31T12:29:27;1.50;;;0.30;;
24383;SDS011;12504;52.870;8.798;2023-08-31T12:31:53;1.05;;;0.45;;
24383;SDS011;12504;52.870;8.798;2023-08-31T12:34:19;0.95;;;0.70;;
24383;SDS011;12504;52.870;8.798;2023-08-31T12:36:45;0.40;;;0.40;;
24383;SDS011;12504;52.870;8.798;2023-08-31T12:39:12;1.52;;;0.57;;
24383;SDS011;12504;52.870;8.798;2023-08-31T12:41:38;0.50;;;0.43;;
24383;SDS011;12504;52.870;8.798;2023-08-31T12:44:05;0.50;;;0.47;;
24383;SDS011;12504;52.870;8.798;2023-08-31T12:46:31;2.40;;;0.70;;
24383;SDS011;12504;52.870;8.798;2023-08-31T12:48:58;1.58;;;0.70;;
24383;SDS011;12504;52.870;8.798;2023-08-31T12:51:25;0.70;;;0.70;;
24383;SDS011;12504;52.870;8.798;2023-08-31T12:53:51;3.47;;;1.42;;
24383;SDS011;12504;52.870;8.798;2023-08-31T12:56:17;5.53;;;1.15;;
24383;SDS011;12504;52.870;8.798;2023-08-31T12:58:50;1.88;;;0.70;;
24383;SDS011;12504;52.870;8.798;2023-08-31T13:01:16;3.30;;;0.98;;
24383;SDS011;12504;52.870;8.798;2023-08-31T13:03:43;1.77;;;0.65;;
24383;SDS011;12504;52.870;8.798;2023-08-31T13:06:09;2.00;;;0.70;;
24383;SDS011;12504;52.870;8.798;2023-08-31T13:08:35;1.63;;;0.50;;
24383;SDS011;12504;52.870;8.798;2023-08-31T13:11:01;0.57;;;0.50;;
24383;SDS011;12504;52.870;8.798;2023-08-31T13:13:30;1.85;;;0.50;;
24383;SDS011;12504;52.870;8.798;2023-08-31T13:15:56;2.13;;;0.60;;
24383;SDS011;12504;52.870;8.798;2023-08-31T13:18:22;3.38;;;1.00;;
24383;SDS011;12504;52.870;8.798;2023-08-31T13:20:52;3.47;;;0.80;;
24383;SDS011;12504;52.870;8.798;2023-08-31T13:23:19;1.67;;;0.98;;
24383;SDS011;12504;52.870;8.798;2023-08-31T13:25:45;2.53;;;0.95;;
24383;SDS011;12504;52.870;8.798;2023-08-31T13:28:11;1.85;;;0.73;;
24383;SDS011;12504;52.870;8.798;2023-08-31T13:30:37;1.60;;;0.93;;
24383;SDS011;12504;52.870;8.798;2023-08-31T13:33:03;1.95;;;1.05;;
24383;SDS011;12504;52.870;8.798;2023-08-31T13:35:30;1.60;;;0.80;;
24383;SDS011;12504;52.870;8.798;2023-08-31T13:37:56;2.47;;;0.90;;
24383;SDS011;12504;52.870;8.798;2023-08-31T13:40:23;3.33;;;0.85;;
24383;SDS011;12504;52.870;8.798;2023-08-31T13:42:56;1.20;;;0.65;;
24383;SDS011;12504;52.870;8.798;2023-08-31T13:45:24;1.02;;;0.60;;
24383;SDS011;12504;52.870;8.798;2023-08-31T13:47:50;2.38;;;0.63;;
24383;SDS011;12504;52.870;8.798;2023-08-31T13:50:16;2.58;;;0.60;;
24383;SDS011;12504;52.870;8.798;2023-08-31T13:52:42;1.90;;;0.68;;
24383;SDS011;12504;52.870;8.798;2023-08-31T13:55:07;3.28;;;0.55;;
24383;SDS011;12504;52.870;8.798;2023-08-31T13:57:33;0.90;;;0.50;;
24383;SDS011;12504;52.870;8.798;2023-08-31T13:59:59;0.50;;;0.50;;
24383;SDS011;12504;52.870;8.798;2023-08-31T14:02:25;0.68;;;0.40;;
24383;SDS011;12504;52.870;8.798;2023-08-31T14:04:51;1.88;;;0.57;;
24383;SDS011;12504;52.870;8.798;2023-08-31T14:07:17;1.27;;;0.75;;
24383;SDS011;12504;52.870;8.798;2023-08-31T14:09:43;4.43;;;0.88;;
24383;SDS011;12504;52.870;8.798;2023-08-31T14:12:09;4.78;;;1.00;;
24383;SDS011;12504;52.870;8.798;2023-08-31T14:14:35;3.53;;;1.00;;
24383;SDS011;12504;52.870;8.798;2023-08-31T14:17:02;1.77;;;0.80;;
24383;SDS011;12504;52.870;8.798;2023-08-31T14:19:28;2.08;;;0.90;;
24383;SDS011;12504;52.870;8.798;2023-08-31T14:21:54;0.98;;;0.75;;
24383;SDS011;12504;52.870;8.798;2023-08-31T14:24:21;1.60;;;0.68;;
24383;SDS011;12504;52.870;8.798;2023-08-31T14:26:50;1.65;;;0.60;;
24383;SDS011;12504;52.870;8.798;2023-08-31T14:29:16;1.27;;;0.60;;
24383;SDS011;12504;52.870;8.798;2023-08-31T14:31:42;0.80;;;0.50;;
24383;SDS011;12504;52.870;8.798;2023-08-31T14:34:08;1.02;;;0.60;;
24383;SDS011;12504;52.870;8.798;2023-08-31T14:36:35;2.08;;;0.60;;
24383;SDS011;12504;52.870;8.798;2023-08-31T14:39:01;4.35;;;0.60;;
24383;SDS011;12504;52.870;8.798;2023-08-31T14:41:27;0.65;;;0.50;;
24383;SDS011;12504;52.870;8.798;2023-08-31T14:43:53;1.67;;;0.43;;
24383;SDS011;12504;52.870;8.798;2023-08-31T14:46:19;0.85;;;0.45;;
24383;SDS011;12504;52.870;8.798;2023-08-31T14:48:47;1.13;;;0.50;;
24383;SDS011;12504;52.870;8.798;2023-08-31T14:51:13;1.15;;;0.57;;
24383;SDS011;12504;52.870;8.798;2023-08-31T14:53:39;0.98;;;0.52;;
24383;SDS011;12504;52.870;8.798;2023-08-31T14:56:05;0.50;;;0.50;;